sensor_id;sensor_type;location;lat;lon;timestamp;temperature;humidity
8994;DHT22;4532;50.886;4.700;2023-04-01T00:01:11;12.70;99.90
8994;DHT22;4532;50.886;4.700;2023-04-01T00:03:42;12.70;99.90
8994;DHT22;4532;50.886;4.700;2023-04-01T00:06:13;12.70;99.90
8994;DHT22;4532;50.886;4.700;2023-04-01T00:08:41;12.70;99.90
8994;DHT22;4532;50.886;4.700;2023-04-01T00:11:08;12.70;99.90
8994;DHT22;4532;50.886;4.700;2023-04-01T00:13:38;12.70;99.90
8994;DHT22;4532;50.886;4.700;2023-04-01T00:16:08;12.70;99.90
8994;DHT22;4532;50.886;4.700;2023-04-01T00:18:49;12.70;99.90
8994;DHT22;4532;50.886;4.700;2023-04-01T00:21:21;12.70;99.90
8994;DHT22;4532;50.886;4.700;2023-04-01T00:23:50;12.60;99.90
8994;DHT22;4532;50.886;4.700;2023-04-01T00:26:19;12.60;99.90
8994;DHT22;4532;50.886;4.700;2023-04-01T00:28:48;12.60;99.90
8994;DHT22;4532;50.886;4.700;2023-04-01T00:31:16;12.60;99.90
8994;DHT22;4532;50.886;4.700;2023-04-01T00:33:48;12.60;99.90
8994;DHT22;4532;50.886;4.700;2023-04-01T00:36:18;12.60;99.90
8994;DHT22;4532;50.886;4.700;2023-04-01T00:38:46;12.60;99.90
8994;DHT22;4532;50.886;4.700;2023-04-01T00:41:17;12.60;99.90
8994;DHT22;4532;50.886;4.700;2023-04-01T00:43:47;12.60;99.90
8994;DHT22;4532;50.886;4.700;2023-04-01T00:46:15;12.60;99.90
8994;DHT22;4532;50.886;4.700;2023-04-01T00:48:47;12.60;99.90
8994;DHT22;4532;50.886;4.700;2023-04-01T00:51:21;12.60;99.90
8994;DHT22;4532;50.886;4.700;2023-04-01T00:53:52;12.60;99.90
8994;DHT22;4532;50.886;4.700;2023-04-01T00:56:30;12.60;99.90
8994;DHT22;4532;50.886;4.700;2023-04-01T00:59:04;12.60;99.90
8994;DHT22;4532;50.886;4.700;2023-04-01T01:01:38;12.60;99.90
8994;DHT22;4532;50.886;4.700;2023-04-01T01:04:28;12.60;99.90
8994;DHT22;4532;50.886;4.700;2023-04-01T01:10:29;12.60;99.90
8994;DHT22;4532;50.886;4.700;2023-04-01T01:13:15;12.50;99.90
8994;DHT22;4532;50.886;4.700;2023-04-01T01:16:37;12.50;99.90
8994;DHT22;4532;50.886;4.700;2023-04-01T01:18:53;12.50;99.90
8994;DHT22;4532;50.886;4.700;2023-04-01T01:24:34;12.50;99.90
8994;DHT22;4532;50.886;4.700;2023-04-01T01:27:13;12.50;99.90
8994;DHT22;4532;50.886;4.700;2023-04-01T01:32:46;12.50;99.90
8994;DHT22;4532;50.886;4.700;2023-04-01T01:35:43;12.60;99.90
8994;DHT22;4532;50.886;4.700;2023-04-01T01:38:17;12.50;99.90
8994;DHT22;4532;50.886;4.700;2023-04-01T01:40:48;12.50;99.90
8994;DHT22;4532;50.886;4.700;2023-04-01T01:43:21;12.50;99.90
8994;DHT22;4532;50.886;4.700;2023-04-01T01:45:54;12.50;99.90
8994;DHT22;4532;50.886;4.700;2023-04-01T01:48:25;12.50;99.90
8994;DHT22;4532;50.886;4.700;2023-04-01T01:50:53;12.50;99.90
8994;DHT22;4532;50.886;4.700;2023-04-01T01:53:20;12.50;99.90
8994;DHT22;4532;50.886;4.700;2023-04-01T01:55:53;12.50;99.90
8994;DHT22;4532;50.886;4.700;2023-04-01T01:58:30;12.50;99.90
8994;DHT22;4532;50.886;4.700;2023-04-01T02:01:04;12.60;99.90
8994;DHT22;4532;50.886;4.700;2023-04-01T02:03:39;12.60;99.90
8994;DHT22;4532;50.886;4.700;2023-04-01T02:06:09;12.50;99.90
8994;DHT22;4532;50.886;4.700;2023-04-01T02:11:32;12.50;99.90
8994;DHT22;4532;50.886;4.700;2023-04-01T02:14:15;12.50;99.90
8994;DHT22;4532;50.886;4.700;2023-04-01T02:17:01;12.50;99.90
8994;DHT22;4532;50.886;4.700;2023-04-01T02:19:45;12.40;99.90
8994;DHT22;4532;50.886;4.700;2023-04-01T02:22:20;12.50;99.90
8994;DHT22;4532;50.886;4.700;2023-04-01T02:24:52;12.50;99.90
8994;DHT22;4532;50.886;4.700;2023-04-01T02:27:26;12.50;99.90
8994;DHT22;4532;50.886;4.700;2023-04-01T02:29:56;12.50;99.90
8994;DHT22;4532;50.886;4.700;2023-04-01T02:32:24;12.50;99.90
8994;DHT22;4532;50.886;4.700;2023-04-01T02:34:52;12.50;99.90
8994;DHT22;4532;50.886;4.700;2023-04-01T02:37:20;12.50;99.90
8994;DHT22;4532;50.886;4.700;2023-04-01T02:39:50;12.50;99.90
8994;DHT22;4532;50.886;4.700;2023-04-01T02:42:19;12.40;99.90
8994;DHT22;4532;50.886;4.700;2023-04-01T02:44:49;12.40;99.90
8994;DHT22;4532;50.886;4.700;2023-04-01T02:47:21;12.40;99.90
8994;DHT22;4532;50.886;4.700;2023-04-01T02:49:52;12.40;99.90
8994;DHT22;4532;50.886;4.700;2023-04-01T02:52:25;12.30;99.90
8994;DHT22;4532;50.886;4.700;2023-04-01T02:54:55;12.30;99.90
8994;DHT22;4532;50.886;4.700;2023-04-01T02:57:25;12.30;99.90
8994;DHT22;4532;50.886;4.700;2023-04-01T02:59:55;12.30;99.90
8994;DHT22;4532;50.886;4.700;2023-04-01T03:02:24;12.30;99.90
8994;DHT22;4532;50.886;4.700;2023-04-01T03:04:52;12.30;99.90
8994;DHT22;4532;50.886;4.700;2023-04-01T03:07:19;12.30;99.90
8994;DHT22;4532;50.886;4.700;2023-04-01T03:09:46;12.30;99.90
8994;DHT22;4532;50.886;4.700;2023-04-01T03:12:15;12.30;99.90
8994;DHT22;4532;50.886;4.700;2023-04-01T03:14:43;12.20;99.90
8994;DHT22;4532;50.886;4.700;2023-04-01T03:17:10;12.20;99.90
8994;DHT22;4532;50.886;4.700;2023-04-01T03:19:41;12.20;99.90
8994;DHT22;4532;50.886;4.700;2023-04-01T03:22:10;12.20;99.90
8994;DHT22;4532;50.886;4.700;2023-04-01T03:24:42;12.20;99.90
8994;DHT22;4532;50.886;4.700;2023-04-01T03:27:10;12.20;99.90
8994;DHT22;4532;50.886;4.700;2023-04-01T03:29:39;12.20;99.90
8994;DHT22;4532;50.886;4.700;2023-04-01T03:32:09;12.20;99.90
8994;DHT22;4532;50.886;4.700;2023-04-01T03:34:36;12.20;99.90
8994;DHT22;4532;50.886;4.700;2023-04-01T03:37:03;12.20;99.90
8994;DHT22;4532;50.886;4.700;2023-04-01T03:39:33;12.20;99.90
8994;DHT22;4532;50.886;4.700;2023-04-01T03:42:02;12.30;99.90
8994;DHT22;4532;50.886;4.700;2023-04-01T03:44:33;12.20;99.90
8994;DHT22;4532;50.886;4.700;2023-04-01T03:47:07;12.20;99.90
8994;DHT22;4532;50.886;4.700;2023-04-01T03:49:38;12.20;99.90
8994;DHT22;4532;50.886;4.700;2023-04-01T03:52:09;12.20;99.90
8994;DHT22;4532;50.886;4.700;2023-04-01T03:54:39;12.20;99.90
8994;DHT22;4532;50.886;4.700;2023-04-01T03:57:09;12.20;99.90
8994;DHT22;4532;50.886;4.700;2023-04-01T03:59:37;12.20;99.90
8994;DHT22;4532;50.886;4.700;2023-04-01T04:02:04;12.30;99.90
8994;DHT22;4532;50.886;4.700;2023-04-01T04:04:31;12.20;99.90
8994;DHT22;4532;50.886;4.700;2023-04-01T04:07:01;12.20;99.90
8994;DHT22;4532;50.886;4.700;2023-04-01T04:09:30;12.20;99.90
8994;DHT22;4532;50.886;4.700;2023-04-01T04:11:57;12.20;99.90
8994;DHT22;4532;50.886;4.700;2023-04-01T04:14:29;12.20;99.90
8994;DHT22;4532;50.886;4.700;2023-04-01T04:16:57;12.20;99.90
8994;DHT22;4532;50.886;4.700;2023-04-01T04:19:24;12.10;99.90
8994;DHT22;4532;50.886;4.700;2023-04-01T04:21:51;12.10;99.90
8994;DHT22;4532;50.886;4.700;2023-04-01T04:24:18;12.10;99.90
8994;DHT22;4532;50.886;4.700;2023-04-01T04:26:45;12.20;99.90
8994;DHT22;4532;50.886;4.700;2023-04-01T04:29:12;12.10;99.90
8994;DHT22;4532;50.886;4.700;2023-04-01T04:31:39;12.10;99.90
8994;DHT22;4532;50.886;4.700;2023-04-01T04:34:07;12.10;99.90
8994;DHT22;4532;50.886;4.700;2023-04-01T04:36:36;12.10;99.90
8994;DHT22;4532;50.886;4.700;2023-04-01T04:39:05;12.10;99.90
8994;DHT22;4532;50.886;4.700;2023-04-01T04:41:37;12.20;99.90
8994;DHT22;4532;50.886;4.700;2023-04-01T04:44:04;12.10;99.90
8994;DHT22;4532;50.886;4.700;2023-04-01T04:46:36;12.10;99.90
8994;DHT22;4532;50.886;4.700;2023-04-01T04:49:08;12.10;99.90
8994;DHT22;4532;50.886;4.700;2023-04-01T04:51:35;12.10;99.90
8994;DHT22;4532;50.886;4.700;2023-04-01T04:54:08;12.10;99.90
8994;DHT22;4532;50.886;4.700;2023-04-01T04:56:37;12.10;99.90
8994;DHT22;4532;50.886;4.700;2023-04-01T04:59:09;12.10;99.90
8994;DHT22;4532;50.886;4.700;2023-04-01T05:01:39;12.10;99.90
8994;DHT22;4532;50.886;4.700;2023-04-01T05:04:11;12.10;99.90
8994;DHT22;4532;50.886;4.700;2023-04-01T05:06:41;12.10;99.90
8994;DHT22;4532;50.886;4.700;2023-04-01T05:09:09;12.10;99.90
8994;DHT22;4532;50.886;4.700;2023-04-01T05:11:36;12.10;99.90
8994;DHT22;4532;50.886;4.700;2023-04-01T05:14:05;12.10;99.90
8994;DHT22;4532;50.886;4.700;2023-04-01T05:16:35;12.10;99.90
8994;DHT22;4532;50.886;4.700;2023-04-01T05:19:04;12.10;99.90
8994;DHT22;4532;50.886;4.700;2023-04-01T05:21:31;12.10;99.90
8994;DHT22;4532;50.886;4.700;2023-04-01T05:24:07;12.10;99.90
8994;DHT22;4532;50.886;4.700;2023-04-01T05:26:35;12.00;99.90
8994;DHT22;4532;50.886;4.700;2023-04-01T05:29:04;12.10;99.90
8994;DHT22;4532;50.886;4.700;2023-04-01T05:31:32;12.10;99.90
8994;DHT22;4532;50.886;4.700;2023-04-01T05:33:59;12.10;99.90
8994;DHT22;4532;50.886;4.700;2023-04-01T05:36:31;12.10;99.90
8994;DHT22;4532;50.886;4.700;2023-04-01T05:39:00;12.00;99.90
8994;DHT22;4532;50.886;4.700;2023-04-01T05:41:30;12.10;99.90
8994;DHT22;4532;50.886;4.700;2023-04-01T05:43:57;12.10;99.90
8994;DHT22;4532;50.886;4.700;2023-04-01T05:46:27;12.10;99.90
8994;DHT22;4532;50.886;4.700;2023-04-01T05:48:54;12.10;99.90
8994;DHT22;4532;50.886;4.700;2023-04-01T05:51:26;12.10;99.90
8994;DHT22;4532;50.886;4.700;2023-04-01T05:53:53;12.10;99.90
8994;DHT22;4532;50.886;4.700;2023-04-01T05:56:20;12.10;99.90
8994;DHT22;4532;50.886;4.700;2023-04-01T05:58:52;12.10;99.90
8994;DHT22;4532;50.886;4.700;2023-04-01T06:01:20;12.10;99.90
8994;DHT22;4532;50.886;4.700;2023-04-01T06:03:47;12.10;99.90
8994;DHT22;4532;50.886;4.700;2023-04-01T06:06:20;12.00;99.90
8994;DHT22;4532;50.886;4.700;2023-04-01T06:08:49;12.00;99.90
8994;DHT22;4532;50.886;4.700;2023-04-01T06:20:27;12.10;99.90
8994;DHT22;4532;50.886;4.700;2023-04-01T06:28:55;12.10;99.90
8994;DHT22;4532;50.886;4.700;2023-04-01T06:48:53;12.00;99.90
8994;DHT22;4532;50.886;4.700;2023-04-01T06:54:25;12.00;99.90
8994;DHT22;4532;50.886;4.700;2023-04-01T06:59:47;12.00;99.90
8994;DHT22;4532;50.886;4.700;2023-04-01T07:02:32;12.00;99.90
8994;DHT22;4532;50.886;4.700;2023-04-01T07:05:02;12.00;99.90
8994;DHT22;4532;50.886;4.700;2023-04-01T07:07:33;12.00;99.90
8994;DHT22;4532;50.886;4.700;2023-04-01T07:10:12;12.00;99.90
8994;DHT22;4532;50.886;4.700;2023-04-01T07:12:53;12.00;99.90
8994;DHT22;4532;50.886;4.700;2023-04-01T07:15:45;12.00;99.90
8994;DHT22;4532;50.886;4.700;2023-04-01T07:18:23;12.10;99.90
8994;DHT22;4532;50.886;4.700;2023-04-01T07:20:57;12.10;99.90
8994;DHT22;4532;50.886;4.700;2023-04-01T07:23:36;12.00;99.90
8994;DHT22;4532;50.886;4.700;2023-04-01T07:28:49;12.10;99.90
8994;DHT22;4532;50.886;4.700;2023-04-01T07:34:12;12.00;99.90
8994;DHT22;4532;50.886;4.700;2023-04-01T07:50:29;12.00;99.90
8994;DHT22;4532;50.886;4.700;2023-04-01T08:06:34;12.10;99.90
8994;DHT22;4532;50.886;4.700;2023-04-01T08:25:27;12.20;99.90
8994;DHT22;4532;50.886;4.700;2023-04-01T08:28:16;12.20;99.90
8994;DHT22;4532;50.886;4.700;2023-04-01T08:30:52;12.20;99.90
8994;DHT22;4532;50.886;4.700;2023-04-01T08:33:28;12.20;99.90
8994;DHT22;4532;50.886;4.700;2023-04-01T08:36:08;12.20;99.90
8994;DHT22;4532;50.886;4.700;2023-04-01T08:38:59;12.30;99.90
8994;DHT22;4532;50.886;4.700;2023-04-01T08:41:58;12.30;99.90
8994;DHT22;4532;50.886;4.700;2023-04-01T08:44:53;12.30;99.90
8994;DHT22;4532;50.886;4.700;2023-04-01T09:12:31;12.50;99.90
8994;DHT22;4532;50.886;4.700;2023-04-01T09:20:55;12.50;99.90
8994;DHT22;4532;50.886;4.700;2023-04-01T09:40:09;12.70;99.90
8994;DHT22;4532;50.886;4.700;2023-04-01T09:57:19;12.70;99.90
8994;DHT22;4532;50.886;4.700;2023-04-01T10:14:38;12.80;99.90
8994;DHT22;4532;50.886;4.700;2023-04-01T10:20:34;12.90;99.90
8994;DHT22;4532;50.886;4.700;2023-04-01T10:36:52;13.10;99.90
8994;DHT22;4532;50.886;4.700;2023-04-01T10:54:49;13.40;99.90
8994;DHT22;4532;50.886;4.700;2023-04-01T11:23:42;13.40;99.90
8994;DHT22;4532;50.886;4.700;2023-04-01T11:27:03;13.40;99.90
8994;DHT22;4532;50.886;4.700;2023-04-01T11:55:24;13.30;99.90
8994;DHT22;4532;50.886;4.700;2023-04-01T12:12:29;13.30;99.90
8994;DHT22;4532;50.886;4.700;2023-04-01T12:15:17;13.40;99.90
8994;DHT22;4532;50.886;4.700;2023-04-01T12:29:40;13.50;99.90
8994;DHT22;4532;50.886;4.700;2023-04-01T12:32:25;13.50;99.90
8994;DHT22;4532;50.886;4.700;2023-04-01T12:49:21;13.40;99.90
8994;DHT22;4532;50.886;4.700;2023-04-01T12:52:04;13.40;99.90
8994;DHT22;4532;50.886;4.700;2023-04-01T13:03:53;13.30;99.90
8994;DHT22;4532;50.886;4.700;2023-04-01T13:09:39;13.20;99.90
8994;DHT22;4532;50.886;4.700;2023-04-01T13:20:41;13.20;99.90
8994;DHT22;4532;50.886;4.700;2023-04-01T13:25:51;13.20;99.90
8994;DHT22;4532;50.886;4.700;2023-04-01T13:28:45;13.20;99.90
8994;DHT22;4532;50.886;4.700;2023-04-01T13:31:47;13.30;99.90
8994;DHT22;4532;50.886;4.700;2023-04-01T13:42:59;13.20;99.90
8994;DHT22;4532;50.886;4.700;2023-04-01T13:45:46;13.20;99.90
8994;DHT22;4532;50.886;4.700;2023-04-01T13:57:19;13.10;99.90
8994;DHT22;4532;50.886;4.700;2023-04-01T14:30:42;13.20;99.90
8994;DHT22;4532;50.886;4.700;2023-04-01T14:36:00;13.20;99.90
8994;DHT22;4532;50.886;4.700;2023-04-01T14:41:39;13.20;99.90
8994;DHT22;4532;50.886;4.700;2023-04-01T14:49:46;13.40;99.90
8994;DHT22;4532;50.886;4.700;2023-04-01T14:52:24;13.40;99.90
8994;DHT22;4532;50.886;4.700;2023-04-01T14:54:52;13.40;99.90
8994;DHT22;4532;50.886;4.700;2023-04-01T14:57:31;13.40;99.90
8994;DHT22;4532;50.886;4.700;2023-04-01T15:00:13;13.50;99.90
8994;DHT22;4532;50.886;4.700;2023-04-01T15:05:38;13.50;99.90
8994;DHT22;4532;50.886;4.700;2023-04-01T15:11:16;13.50;99.90
8994;DHT22;4532;50.886;4.700;2023-04-01T15:20:22;13.40;99.90
8994;DHT22;4532;50.886;4.700;2023-04-01T15:31:32;13.50;99.90
8994;DHT22;4532;50.886;4.700;2023-04-01T15:39:57;13.40;99.90
8994;DHT22;4532;50.886;4.700;2023-04-01T15:45:17;13.20;99.90
8994;DHT22;4532;50.886;4.700;2023-04-01T15:47:53;13.20;99.90
8994;DHT22;4532;50.886;4.700;2023-04-01T15:50:51;13.20;99.90
8994;DHT22;4532;50.886;4.700;2023-04-01T15:53:44;13.20;99.90
8994;DHT22;4532;50.886;4.700;2023-04-01T15:59:06;13.10;99.90
8994;DHT22;4532;50.886;4.700;2023-04-01T16:01:59;13.00;99.90
8994;DHT22;4532;50.886;4.700;2023-04-01T16:07:47;13.00;99.90
8994;DHT22;4532;50.886;4.700;2023-04-01T16:19:22;12.90;99.90
8994;DHT22;4532;50.886;4.700;2023-04-01T16:27:36;12.80;99.90
8994;DHT22;4532;50.886;4.700;2023-04-01T16:33:18;12.80;99.90
8994;DHT22;4532;50.886;4.700;2023-04-01T16:47:40;12.70;99.90
8994;DHT22;4532;50.886;4.700;2023-04-01T16:50:26;12.70;99.90
8994;DHT22;4532;50.886;4.700;2023-04-01T16:58:56;12.60;99.90
8994;DHT22;4532;50.886;4.700;2023-04-01T17:01:38;12.50;99.90
8994;DHT22;4532;50.886;4.700;2023-04-01T17:07:38;12.40;99.90
8994;DHT22;4532;50.886;4.700;2023-04-01T17:15:57;12.40;99.90
8994;DHT22;4532;50.886;4.700;2023-04-01T17:24:43;12.40;99.90
8994;DHT22;4532;50.886;4.700;2023-04-01T17:30:30;12.30;99.90
8994;DHT22;4532;50.886;4.700;2023-04-01T17:35:37;12.30;99.90
8994;DHT22;4532;50.886;4.700;2023-04-01T17:41:24;12.30;99.90
8994;DHT22;4532;50.886;4.700;2023-04-01T17:44:02;12.20;99.90
8994;DHT22;4532;50.886;4.700;2023-04-01T17:49:26;12.20;99.90
8994;DHT22;4532;50.886;4.700;2023-04-01T17:52:16;12.10;99.90
8994;DHT22;4532;50.886;4.700;2023-04-01T17:57:36;12.10;99.90
8994;DHT22;4532;50.886;4.700;2023-04-01T18:02:53;12.10;99.90
8994;DHT22;4532;50.886;4.700;2023-04-01T18:19:39;12.10;99.90
8994;DHT22;4532;50.886;4.700;2023-04-01T18:30:51;12.10;99.90
8994;DHT22;4532;50.886;4.700;2023-04-01T18:33:31;12.10;99.90
8994;DHT22;4532;50.886;4.700;2023-04-01T18:38:50;12.00;99.90
8994;DHT22;4532;50.886;4.700;2023-04-01T18:44:16;12.00;99.90
8994;DHT22;4532;50.886;4.700;2023-04-01T18:52:56;12.00;99.90
8994;DHT22;4532;50.886;4.700;2023-04-01T18:57:53;12.00;99.90
8994;DHT22;4532;50.886;4.700;2023-04-01T19:00:36;12.00;99.90
8994;DHT22;4532;50.886;4.700;2023-04-01T19:06:02;12.00;99.90
8994;DHT22;4532;50.886;4.700;2023-04-01T19:08:42;11.90;99.90
8994;DHT22;4532;50.886;4.700;2023-04-01T19:11:39;11.90;99.90
8994;DHT22;4532;50.886;4.700;2023-04-01T19:27:42;11.90;99.90
8994;DHT22;4532;50.886;4.700;2023-04-01T19:44:26;11.80;99.90
8994;DHT22;4532;50.886;4.700;2023-04-01T19:52:37;11.80;99.90
8994;DHT22;4532;50.886;4.700;2023-04-01T20:00:52;11.70;99.90
8994;DHT22;4532;50.886;4.700;2023-04-01T20:11:59;11.70;99.90
8994;DHT22;4532;50.886;4.700;2023-04-01T20:14:41;11.70;99.90
8994;DHT22;4532;50.886;4.700;2023-04-01T20:22:37;11.70;99.90
8994;DHT22;4532;50.886;4.700;2023-04-01T20:25:30;11.70;99.90
8994;DHT22;4532;50.886;4.700;2023-04-01T20:50:59;11.70;99.90
8994;DHT22;4532;50.886;4.700;2023-04-01T21:07:28;11.80;99.90
8994;DHT22;4532;50.886;4.700;2023-04-01T21:15:36;11.80;99.90
8994;DHT22;4532;50.886;4.700;2023-04-01T21:18:17;11.80;99.90
8994;DHT22;4532;50.886;4.700;2023-04-01T21:23:40;11.90;99.90
8994;DHT22;4532;50.886;4.700;2023-04-01T21:32:05;11.90;99.90
8994;DHT22;4532;50.886;4.700;2023-04-01T21:40:11;11.90;99.90
8994;DHT22;4532;50.886;4.700;2023-04-01T22:12:04;11.90;99.90
8994;DHT22;4532;50.886;4.700;2023-04-01T22:14:47;11.90;99.90
8994;DHT22;4532;50.886;4.700;2023-04-01T22:17:17;11.80;99.90
8994;DHT22;4532;50.886;4.700;2023-04-01T22:28:22;11.80;99.90
8994;DHT22;4532;50.886;4.700;2023-04-01T22:30:54;11.80;99.90
8994;DHT22;4532;50.886;4.700;2023-04-01T22:39:02;11.70;99.90
8994;DHT22;4532;50.886;4.700;2023-04-01T22:45:49;11.70;99.90
8994;DHT22;4532;50.886;4.700;2023-04-01T22:48:08;11.60;99.90
8994;DHT22;4532;50.886;4.700;2023-04-01T22:55:57;11.50;99.90
8994;DHT22;4532;50.886;4.700;2023-04-01T22:58:51;11.50;99.90
8994;DHT22;4532;50.886;4.700;2023-04-01T23:01:29;11.50;99.90
8994;DHT22;4532;50.886;4.700;2023-04-01T23:03:58;11.60;99.90
8994;DHT22;4532;50.886;4.700;2023-04-01T23:06:35;11.60;99.90
8994;DHT22;4532;50.886;4.700;2023-04-01T23:09:23;11.60;99.90
8994;DHT22;4532;50.886;4.700;2023-04-01T23:14:35;11.70;99.90
8994;DHT22;4532;50.886;4.700;2023-04-01T23:17:19;11.70;99.90
8994;DHT22;4532;50.886;4.700;2023-04-01T23:23:05;11.60;99.90
8994;DHT22;4532;50.886;4.700;2023-04-01T23:31:02;11.50;99.90
8994;DHT22;4532;50.886;4.700;2023-04-01T23:33:31;11.40;99.90
8994;DHT22;4532;50.886;4.700;2023-04-01T23:36:02;11.30;99.90
8994;DHT22;4532;50.886;4.700;2023-04-01T23:38:42;11.30;99.90
8994;DHT22;4532;50.886;4.700;2023-04-01T23:41:29;11.30;99.90
8994;DHT22;4532;50.886;4.700;2023-04-01T23:44:03;11.30;99.90
8994;DHT22;4532;50.886;4.700;2023-04-01T23:46:35;11.20;99.90
8994;DHT22;4532;50.886;4.700;2023-04-01T23:49:03;11.20;99.90
8994;DHT22;4532;50.886;4.700;2023-04-01T23:51:46;11.10;99.90
8994;DHT22;4532;50.886;4.700;2023-04-01T23:54:46;11.00;99.90
8994;DHT22;4532;50.886;4.700;2023-04-01T23:57:19;11.10;99.90
